Terminal Aerodrome Forecast
Issued by NWS Shreveport, LA

Home | Current Version | Previous Version | Text Only | Print | Product List | Glossary On
Versions: 1 2 3 4 5 6 7 8 9 10 11 12 13 14 15 16 17 18 19 20
666
FTUS44 KSHV 021756
TAFSHV
TAF
KSHV 021756Z 0218/0318 33011KT P6SM BKN025 OVC050
     FM022100 33008KT P6SM OVC050
     FM030300 34004KT P6SM BKN070 OVC100
     FM030900 34004KT P6SM BKN015
     FM031400 35005KT P6SM BKN040 BKN100=

USA.gov is the U.S. government's official web portal to all federal, state and local government web resources and services.